Burr Oak, Michigan
Current Conditions -  °F | °C
As of 11:35 AM on Sunday 21 Dec 2014 (Local Time) from KIRS Reporting Station
Haze Haze  
Wind Chill: 22°   Ceiling: 5000
Heat Index: 30°   Visibility: 5mi
Dew Point: 27°   Wind: 9mph
Humidity: 86%   Direction: 160°SSE
Pressure: 30.25"   Gusts: NA
Location:  41.85°N, 85.32°W
Report Text: KIRS 211635Z AUTO 16008KT 5SM BR OVC050 M01/M03 A3025 RMK AO2
Loading
Personal Weather Stations






























Interactive Weather Map New forecast layout! Learn more

10-Day Weather Forecast

Advertisements
Track Severe Weather on mobile